KAKR/AKR METAR and TAF weather

Enter ICAO airport designator
Station Type Date Time Source
KAKR METAR 2019/10/16 18:54 UTC NOAA

KAKR 161854Z AUTO 24013G20KT 10SM OVC025 10/04 A2967 RMK AO2 SLP044 T01000039


Station Type Date Time Source
KAKR Decoded METAR 2019/10/16 18:54 UTC NOAA

AKRON FULTON INTERNATIONAL, OH, United States (KAKR) 41-02N 081-28W 363M
Oct 16, 2019 - 02:54 PM EDT / 2019.10.16 1854 UTC
Wind: from the WSW (240 degrees) at 15 MPH (13 KT) gusting to 23 MPH (20 KT):0
Visibility: 10 mile(s):0
Sky conditions: overcast
Temperature: 50.0 F (10.0 C)
Dew Point: 39.0 F (3.9 C)
Relative Humidity: 65%
Pressure (altimeter): 29.67 in. Hg (1004 hPa)
ob: KAKR 161854Z AUTO 24013G20KT 10SM OVC025 10/04 A2967 RMK AO2 SLP044 T01000039
cycle: 19

Station Type Date Time Source
KAKR TAF UTC NOAA

Error!

Example: see airport list